Edwards Crossroads, North Carolina
Current Conditions -  °F | °C
As of 2:15 PM on Friday 21 Nov 2014 (Local Time) from KGEV Reporting Station
Clear Clear  
Wind Chill: 35°   Ceiling: Unl
Heat Index: 41°   Visibility: 10mi
Dew Point: -12°   Wind: 12mph
Humidity: 10%   Direction: 330°NNW
Pressure: 30.33"   Gusts: 17mph
Location:  36.5212°N, 81.1574°W
Report Text: KGEV 211915Z AUTO 33010G15KT 10SM CLR 05/M24 A3033 RMK AO2 T00511245
Loading
Personal Weather Stations






























Interactive Weather Map New forecast layout! Learn more

10-Day Weather Forecast

Advertisements
Track Severe Weather on mobile